»·PEaware :: N313KP KAFF-KVEL

N313KP :: KAFF-KVEL

FLIGHT INFORMATION

Flight Status: Arrived
Operator: Privately registered:
United States
More flights under this callsign
Pilot: Erik A. (17503)
Aircraft: BEECH AIRCRAFT BONANZA
(BE35)
More flights by this aircraft type
Origin: KAFF USAF Academy
United States
Destination: KVEL Vernal
United States
More flights between these airports :: More routes between these airports
Route:
File this flight plan on PilotEdge
Remarks: Alphabet Challenge WUS Leg #21
Altitude:
(Current/Filed)
10,500ft
Speed:
(Current/Filed)
130kts
Departed: 11-Jul-19 12:40 PM
Arrived: 11-Jul-19 02:23 PM
Distance/Time
Traveled:
234nm/1:42
Distance/Time
To Go:
Arrived

Flight Plot

Page will automatically refresh every two minutes.

Flight plan parsing failed; only flown route is shown


Map Options




Map Legend


Flown Route
Filed Route
Departure Airport
Arrival Airport
Navaid (VOR, NDB)
Fix

Horizontal Profiles

Position Reports

Time Latitude Longitude Heading Altitude Ground
Speed
11-Jul-19 12:22 38.966231 -104.822714 358 6533ft 0kts
11-Jul-19 12:23 38.966231 -104.822714 358 6533ft 0kts
11-Jul-19 12:24 38.966231 -104.822714 358 6533ft 0kts
11-Jul-19 12:24 38.966231 -104.822714 358 6533ft 0kts
11-Jul-19 12:26 38.966231 -104.822714 358 6533ft 0kts
11-Jul-19 12:27 38.966231 -104.822714 358 6533ft 0kts
11-Jul-19 12:27 38.966231 -104.822714 358 6533ft 0kts
11-Jul-19 12:29 38.966231 -104.822714 358 6533ft 0kts
11-Jul-19 12:29 38.966231 -104.822714 358 6533ft 0kts
11-Jul-19 12:30 38.966231 -104.822714 358 6533ft 0kts
11-Jul-19 12:32 38.966232 -104.822714 358 6533ft 0kts
11-Jul-19 12:32 38.966233 -104.822714 358 6533ft 0kts
11-Jul-19 12:33 38.966257 -104.822510 95 6533ft 2kts
11-Jul-19 12:34 38.966322 -104.821749 75 6533ft 1kts
11-Jul-19 12:35 38.966630 -104.820519 72 6533ft 3kts
11-Jul-19 12:36 38.966651 -104.820435 72 6533ft 0kts
11-Jul-19 12:37 38.966703 -104.820180 79 6533ft 2kts
11-Jul-19 12:38 38.966855 -104.820091 347 6533ft 0kts
11-Jul-19 12:39 38.977419 -104.822292 353 6580ft 93kts
11-Jul-19 12:40 39.006491 -104.832411 352 7276ft 129kts
11-Jul-19 12:41 39.042194 -104.854646 335 7767ft 146kts
11-Jul-19 12:42 39.071662 -104.879179 338 8366ft 138kts
11-Jul-19 12:43 39.085187 -104.914754 228 9378ft 124kts
11-Jul-19 12:44 39.059161 -104.942117 217 10274ft 120kts
11-Jul-19 12:45 39.041660 -104.982082 251 10609ft 151kts
11-Jul-19 12:46 39.031127 -105.037066 264 10756ft 165kts
11-Jul-19 12:47 39.023509 -105.097454 255 10808ft 174kts
11-Jul-19 12:48 39.008672 -105.156700 245 10759ft 174kts
11-Jul-19 12:49 38.984150 -105.210195 231 10968ft 173kts
11-Jul-19 12:50 38.947074 -105.250577 222 11033ft 172kts
11-Jul-19 12:51 38.910161 -105.288650 216 11372ft 168kts
11-Jul-19 12:52 38.890259 -105.330768 310 12183ft 142kts
11-Jul-19 12:53 38.908698 -105.376342 274 12429ft 166kts
11-Jul-19 12:54 38.901814 -105.438247 265 12336ft 171kts
11-Jul-19 12:55 38.893929 -105.498010 259 12027ft 178kts
11-Jul-19 12:56 38.882939 -105.553513 257 11991ft 173kts
11-Jul-19 12:57 38.867225 -105.612785 253 11802ft 178kts
11-Jul-19 12:58 38.857980 -105.673533 271 11628ft 172kts
11-Jul-19 12:59 38.862774 -105.731645 270 11831ft 159kts
11-Jul-19 13:00 38.864030 -105.788375 277 11975ft 159kts
11-Jul-19 13:01 38.860357 -105.845803 261 12069ft 163kts
11-Jul-19 13:02 38.850206 -105.902526 265 12324ft 163kts
11-Jul-19 13:03 38.845666 -105.960859 267 12649ft 163kts
11-Jul-19 13:04 38.848383 -106.018925 286 12601ft 164kts
11-Jul-19 13:05 38.865766 -106.072943 296 12755ft 163kts
11-Jul-19 13:06 38.892939 -106.122333 313 12554ft 175kts
11-Jul-19 13:07 38.930109 -106.161800 327 12550ft 171kts
11-Jul-19 13:08 38.969790 -106.196248 323 12540ft 172kts
11-Jul-19 13:09 39.008587 -106.232672 322 12639ft 172kts
11-Jul-19 13:10 39.047423 -106.268633 312 12461ft 171kts
11-Jul-19 13:11 39.061064 -106.324417 273 12463ft 164kts
11-Jul-19 13:12 39.061965 -106.384818 272 12424ft 168kts
11-Jul-19 13:13 39.063442 -106.443111 268 12761ft 155kts
11-Jul-19 13:14 39.064283 -106.496339 279 13489ft 142kts
11-Jul-19 13:15 39.076025 -106.543023 319 13991ft 136kts
11-Jul-19 13:16 39.105512 -106.579561 294 14252ft 152kts
11-Jul-19 13:17 39.119244 -106.632514 278 14592ft 163kts
11-Jul-19 13:18 39.123203 -106.691675 277 14388ft 166kts
11-Jul-19 13:19 39.134026 -106.748229 307 13849ft 186kts
11-Jul-19 13:20 39.169098 -106.796047 313 12129ft 210kts
11-Jul-19 13:21 39.214666 -106.842866 327 10847ft 208kts
11-Jul-19 13:22 39.260824 -106.882583 320 10444ft 185kts
11-Jul-19 13:23 39.288033 -106.933657 294 10608ft 164kts
11-Jul-19 13:24 39.308527 -106.985661 307 10817ft 163kts
11-Jul-19 13:25 39.342577 -107.023242 323 11147ft 165kts
11-Jul-19 13:26 39.380743 -107.056028 332 11321ft 166kts
11-Jul-19 13:27 39.422925 -107.079803 337 11809ft 164kts
11-Jul-19 13:28 39.468470 -107.087643 0 11966ft 167kts
11-Jul-19 13:29 39.509914 -107.049349 44 11184ft 198kts
11-Jul-19 13:30 39.546691 -106.996540 47 10687ft 193kts
11-Jul-19 13:31 39.583281 -106.946786 41 10391ft 188kts
11-Jul-19 13:32 39.625062 -106.908399 10 10190ft 182kts
11-Jul-19 13:33 39.664669 -106.940030 289 10269ft 174kts
11-Jul-19 13:34 39.670632 -106.999702 283 10520ft 167kts
11-Jul-19 13:35 39.690735 -107.054629 296 10533ft 169kts
11-Jul-19 13:36 39.713003 -107.107938 297 10683ft 160kts
11-Jul-19 13:37 39.732914 -107.154237 297 11536ft 139kts
11-Jul-19 13:38 39.751955 -107.197457 297 12164ft 136kts
11-Jul-19 13:39 39.770609 -107.240328 298 12614ft 146kts
11-Jul-19 13:40 39.792051 -107.289029 297 12627ft 160kts
11-Jul-19 13:41 39.814602 -107.340606 295 12630ft 164kts
11-Jul-19 13:42 39.837018 -107.392460 297 12614ft 165kts
11-Jul-19 13:43 39.861080 -107.447420 298 12570ft 174kts
11-Jul-19 13:44 39.884749 -107.501585 296 12553ft 170kts
11-Jul-19 13:45 39.907603 -107.555005 298 12531ft 168kts
11-Jul-19 13:46 39.930830 -107.608094 297 12521ft 168kts
11-Jul-19 13:47 39.953776 -107.661032 297 12511ft 167kts
11-Jul-19 13:48 39.976998 -107.715021 297 12494ft 169kts
11-Jul-19 13:49 39.999490 -107.768569 290 12473ft 167kts
11-Jul-19 13:50 40.015814 -107.825726 288 12473ft 168kts
11-Jul-19 13:51 40.032489 -107.884170 288 12480ft 171kts
11-Jul-19 13:52 40.049097 -107.941427 288 12484ft 166kts
11-Jul-19 13:53 40.065789 -107.999250 287 12469ft 170kts
11-Jul-19 13:54 40.082783 -108.058294 288 12470ft 173kts
11-Jul-19 13:55 40.099729 -108.118727 288 12461ft 174kts
11-Jul-19 13:56 40.116812 -108.178647 288 12451ft 173kts
11-Jul-19 13:57 40.126410 -108.239214 277 12446ft 168kts
11-Jul-19 13:58 40.133157 -108.299562 276 12430ft 167kts
11-Jul-19 13:59 40.140197 -108.360974 277 12415ft 170kts
11-Jul-19 14:00 40.147465 -108.424030 277 12398ft 173kts
11-Jul-19 14:01 40.154410 -108.484690 276 12385ft 166kts
11-Jul-19 14:02 40.161439 -108.545096 276 12382ft 167kts
11-Jul-19 14:03 40.168835 -108.607410 276 12367ft 171kts
11-Jul-19 14:04 40.176286 -108.669306 276 12364ft 169kts
11-Jul-19 14:05 40.188122 -108.730116 283 12361ft 170kts
11-Jul-19 14:06 40.202474 -108.790581 285 12360ft 171kts
11-Jul-19 14:07 40.216830 -108.847185 286 12513ft 162kts
11-Jul-19 14:08 40.230995 -108.903268 285 12521ft 163kts
11-Jul-19 14:09 40.246165 -108.962557 286 12513ft 171kts
11-Jul-19 14:10 40.261129 -109.022322 284 12517ft 170kts
11-Jul-19 14:11 40.275620 -109.080344 284 12366ft 172kts
11-Jul-19 14:12 40.291847 -109.143501 285 11512ft 194kts
11-Jul-19 14:13 40.306955 -109.212658 283 10439ft 198kts
11-Jul-19 14:14 40.322231 -109.283208 287 9228ft 207kts
11-Jul-19 14:15 40.351118 -109.347856 312 8183ft 206kts
11-Jul-19 14:16 40.392101 -109.399506 312 7397ft 200kts
11-Jul-19 14:17 40.428968 -109.453149 311 6696ft 194kts
11-Jul-19 14:18 40.473990 -109.476539 0 6772ft 159kts
11-Jul-19 14:20 40.502535 -109.490390 255 6872ft 105kts
11-Jul-19 14:21 40.480534 -109.510423 185 6204ft 110kts
11-Jul-19 14:22 40.451902 -109.510801 178 5406ft 90kts
11-Jul-19 14:23 40.442867 -109.511629 359 5281ft 7kts
11-Jul-19 14:24 40.445392 -109.511690 333 5281ft 9kts
11-Jul-19 14:25 40.446141 -109.513503 356 5281ft 0kts
11-Jul-19 14:26 40.446151 -109.513504 356 5281ft 0kts
11-Jul-19 14:27 40.446161 -109.513505 356 5281ft 0kts
11-Jul-19 14:28 40.446172 -109.513506 356 5281ft 0kts
11-Jul-19 14:29 40.446183 -109.513507 356 5281ft 0kts
11-Jul-19 14:30 40.446184 -109.513507 356 5281ft 0kts
11-Jul-19 14:31 40.446184 -109.513507 356 5281ft 0kts

Navigation Log

Ident Type
Flight plan parsing failed, navigation log unavailable